Time;durP1;ratioP1;P1;durP2;ratioP2;P2;SDS_P1;SDS_P2;PMS_P1;PMS_P2;Temp;Humidity;BMP_temperature;BMP_pressure;BME280_temperature;BME280_humidity;BME280_pressure;Samples;Min_cycle;Max_cycle;Signal;HPM_P1;HPM_P2
2022/11/02 00:00:44;;;;;;;8.40;2.80;;;14.70;99.90;;;;;;4879413;29;20520;-79
2022/11/02 00:03:10;;;;;;;9.50;2.47;;;14.70;99.90;;;;;;4879871;29;20477;-74
2022/11/02 00:05:35;;;;;;;14.63;2.87;;;14.70;99.90;;;;;;4879754;29;20968;-73
2022/11/02 00:08:01;;;;;;;8.07;2.77;;;14.80;99.90;;;;;;4879797;29;20668;-74
2022/11/02 00:10:28;;;;;;;10.67;2.80;;;14.90;99.90;;;;;;4879726;29;20188;-74
2022/11/02 00:12:54;;;;;;;17.97;2.97;;;14.80;99.90;;;;;;4879807;29;20177;-74
2022/11/02 00:15:23;;;;;;;6.63;2.23;;;14.80;99.90;;;;;;4879638;29;20438;-74
2022/11/02 00:17:50;;;;;;;16.00;3.20;;;14.80;99.90;;;;;;4879735;29;20772;-74
2022/11/02 00:20:18;;;;;;;13.60;2.37;;;14.90;99.90;;;;;;4879692;29;20429;-73
2022/11/02 00:22:47;;;;;;;11.80;3.10;;;14.90;99.90;;;;;;4863146;29;20488;-75
2022/11/02 00:25:16;;;;;;;6.63;2.00;;;14.80;99.90;;;;;;4879526;29;20989;-75
2022/11/02 00:27:42;;;;;;;8.70;2.03;;;14.80;99.90;;;;;;4862822;29;20448;-75
2022/11/02 00:30:09;;;;;;;12.43;2.77;;;14.80;99.90;;;;;;4879569;29;20803;-73
2022/11/02 00:32:34;;;;;;;15.17;2.67;;;14.90;99.90;;;;;;4879356;29;20476;-73
2022/11/02 00:35:00;;;;;;;12.87;2.83;;;14.90;99.90;;;;;;4879514;29;20441;-73
2022/11/02 00:37:26;;;;;;;11.63;2.33;;;14.90;99.90;;;;;;4879427;29;20185;-73
2022/11/02 00:39:51;;;;;;;7.70;1.60;;;14.90;99.90;;;;;;4879491;29;20244;-73
2022/11/02 00:42:17;;;;;;;11.23;3.03;;;15.00;99.90;;;;;;4879254;29;20294;-73
2022/11/02 00:44:43;;;;;;;8.13;2.10;;;14.90;99.90;;;;;;4879536;29;20263;-75
2022/11/02 00:47:10;;;;;;;4.50;2.30;;;14.90;99.90;;;;;;4879375;29;20184;-74
2022/11/02 00:49:36;;;;;;;8.67;2.00;;;14.90;99.90;;;;;;4879356;29;20177;-77
2022/11/02 00:52:01;;;;;;;9.20;2.60;;;14.90;99.90;;;;;;4879337;29;20998;-76
2022/11/02 00:54:27;;;;;;;12.53;3.10;;;14.90;99.90;;;;;;4879230;29;20189;-76
2022/11/02 00:56:52;;;;;;;9.53;2.73;;;14.90;99.90;;;;;;4879385;29;20181;-74
2022/11/02 00:59:18;;;;;;;8.83;2.90;;;14.90;99.90;;;;;;4879200;29;20654;-74
2022/11/02 01:01:46;;;;;;;9.20;2.67;;;14.90;99.90;;;;;;4879173;29;20207;-73
2022/11/02 01:04:13;;;;;;;10.73;2.40;;;14.80;99.90;;;;;;4879228;29;20212;-74
2022/11/02 01:06:39;;;;;;;8.73;2.10;;;14.70;99.90;;;;;;4879257;29;20440;-74
2022/11/02 01:09:04;;;;;;;8.13;1.97;;;14.80;99.90;;;;;;4879152;29;20433;-74
2022/11/02 01:11:30;;;;;;;10.97;2.83;;;14.80;99.90;;;;;;4881553;29;20418;-74
2022/11/02 01:13:55;;;;;;;10.13;2.53;;;14.80;99.90;;;;;;4882952;29;20236;-74
2022/11/02 01:16:21;;;;;;;13.07;2.13;;;14.70;99.90;;;;;;4882809;29;20177;-73
2022/11/02 01:18:52;;;;;;;6.80;2.10;;;14.70;99.90;;;;;;4882894;29;20276;-73
2022/11/02 01:21:18;;;;;;;11.33;2.40;;;14.70;99.90;;;;;;4882734;29;20317;-73
2022/11/02 01:23:43;;;;;;;8.37;2.37;;;14.70;99.90;;;;;;4882634;29;20477;-73
2022/11/02 01:26:10;;;;;;;7.53;2.40;;;14.70;99.90;;;;;;4882595;29;20422;-73
2022/11/02 01:28:38;;;;;;;8.70;2.60;;;14.60;99.90;;;;;;4882661;29;20178;-73
2022/11/02 01:31:04;;;;;;;17.00;3.30;;;14.60;99.90;;;;;;4882297;29;20509;-74
2022/11/02 01:33:29;;;;;;;8.57;2.23;;;14.60;99.90;;;;;;4882554;29;20444;-73
2022/11/02 05:31:33;;;;;;;3.70;2.30;;;14.50;99.90;;;;;;5383070;23;20512;-76
2022/11/02 05:33:58;;;;;;;7.17;3.43;;;14.50;99.90;;;;;;4878759;29;20952;-76
2022/11/02 05:36:24;;;;;;;11.17;2.67;;;14.60;99.90;;;;;;4878772;29;20264;-74
2022/11/02 05:38:54;;;;;;;6.03;2.33;;;14.70;99.90;;;;;;4878596;29;20712;-81
2022/11/02 05:41:19;;;;;;;4.83;2.17;;;14.60;99.90;;;;;;4877643;29;20181;-80
2022/11/02 05:43:45;;;;;;;8.97;3.00;;;14.70;99.90;;;;;;4877520;29;20485;-74
2022/11/02 05:46:13;;;;;;;12.97;3.30;;;14.60;99.90;;;;;;4877638;29;20629;-73
2022/11/02 05:48:39;;;;;;;7.00;2.47;;;14.60;99.90;;;;;;4877606;29;20671;-73
2022/11/02 05:51:06;;;;;;;4.80;1.90;;;14.60;99.90;;;;;;4877614;29;20425;-72
2022/11/02 05:53:36;;;;;;;12.83;2.87;;;14.70;99.90;;;;;;4877413;29;20473;-73
2022/11/02 05:56:03;;;;;;;7.23;2.43;;;14.60;99.90;;;;;;4877680;29;20425;-74
2022/11/02 05:58:28;;;;;;;8.37;2.33;;;14.60;99.90;;;;;;4879416;29;20441;-74
2022/11/02 06:00:57;;;;;;;15.53;2.43;;;14.70;99.90;;;;;;4880519;29;20521;-80
2022/11/02 06:03:23;;;;;;;10.83;2.40;;;14.70;99.90;;;;;;4880849;29;20208;-73
2022/11/02 06:05:58;;;;;;;12.43;2.53;;;14.70;99.90;;;;;;4881075;29;20553;-73
2022/11/02 06:08:24;;;;;;;9.97;2.00;;;14.60;99.90;;;;;;4881013;29;20188;-73
2022/11/02 06:10:50;;;;;;;11.13;2.80;;;14.60;99.90;;;;;;4880704;29;20787;-72
2022/11/02 06:13:15;;;;;;;8.30;2.90;;;14.60;99.90;;;;;;4880425;29;20181;-73
2022/11/02 06:15:41;;;;;;;8.83;3.50;;;14.60;99.90;;;;;;4880586;29;20656;-73
2022/11/02 06:18:07;;;;;;;9.90;2.40;;;14.60;99.90;;;;;;4880310;29;20174;-73
2022/11/02 06:20:33;;;;;;;8.80;2.47;;;14.70;99.90;;;;;;4880443;29;20177;-73
2022/11/02 06:22:58;;;;;;;10.37;2.90;;;14.70;99.90;;;;;;4880832;29;20229;-73
2022/11/02 06:25:25;;;;;;;9.87;1.90;;;14.60;99.90;;;;;;4880312;29;20433;-73
2022/11/02 06:27:53;;;;;;;9.37;2.53;;;14.70;99.90;;;;;;4880482;29;20645;-75
2022/11/02 06:30:19;;;;;;;7.20;2.47;;;14.60;99.90;;;;;;4879731;29;20840;-73
2022/11/02 06:32:52;;;;;;;17.83;3.40;;;14.50;99.90;;;;;;4879937;29;20434;-76
2022/11/02 06:35:20;;;;;;;13.93;2.53;;;14.60;99.90;;;;;;4880042;29;20184;-75
2022/11/02 06:37:46;;;;;;;8.57;3.80;;;14.60;99.90;;;;;;4880119;29;20489;-75
2022/11/02 06:40:12;;;;;;;6.23;2.07;;;14.60;99.90;;;;;;4879458;29;20925;-75
2022/11/02 06:42:39;;;;;;;6.93;2.10;;;14.50;99.90;;;;;;4880275;29;20521;-76
2022/11/02 06:45:05;;;;;;;6.17;2.50;;;14.50;99.90;;;;;;4880625;29;20438;-76
2022/11/02 06:47:32;;;;;;;6.13;2.40;;;14.50;99.90;;;;;;4880503;29;20525;-76
2022/11/02 06:49:58;;;;;;;5.33;1.70;;;14.50;99.90;;;;;;4880236;29;20901;-76
2022/11/02 06:52:25;;;;;;;9.20;3.57;;;14.40;99.90;;;;;;4880882;29;20504;-76
2022/11/02 06:54:50;;;;;;;9.60;2.57;;;14.30;99.90;;;;;;4880227;29;20430;-76
2022/11/02 06:57:16;;;;;;;9.00;2.30;;;14.40;99.90;;;;;;4880926;29;20918;-76
2022/11/02 06:59:42;;;;;;;8.30;2.43;;;14.30;99.90;;;;;;4881036;29;20173;-76
2022/11/02 07:02:08;;;;;;;7.80;2.23;;;14.20;99.90;;;;;;4880773;29;20213;-76
2022/11/02 07:04:33;;;;;;;8.07;2.50;;;14.30;99.90;;;;;;4881029;29;20260;-75
2022/11/02 07:06:59;;;;;;;11.47;3.30;;;14.30;99.90;;;;;;4880796;29;20586;-75
2022/11/02 07:09:24;;;;;;;12.97;2.70;;;14.30;99.90;;;;;;4880402;29;20260;-75
2022/11/02 07:11:50;;;;;;;9.10;2.23;;;14.40;99.90;;;;;;4880841;29;20188;-75
2022/11/02 07:14:15;;;;;;;16.17;3.37;;;14.30;99.90;;;;;;4880656;29;20660;-74
2022/11/02 07:16:41;;;;;;;7.53;2.70;;;14.30;99.90;;;;;;4880705;29;20183;-74
2022/11/02 07:19:07;;;;;;;7.47;2.30;;;14.30;99.90;;;;;;4880641;29;20280;-74
2022/11/02 07:21:32;;;;;;;17.13;2.60;;;14.30;99.90;;;;;;4880488;29;20656;-75
2022/11/02 07:23:58;;;;;;;7.40;2.70;;;14.30;99.90;;;;;;4880404;29;20226;-74
2022/11/02 07:26:25;;;;;;;21.53;4.70;;;14.40;99.90;;;;;;4880479;29;20181;-75
2022/11/02 07:28:50;;;;;;;7.13;2.10;;;14.30;99.90;;;;;;4880460;29;20201;-74
2022/11/02 07:31:16;;;;;;;9.90;2.37;;;14.30;99.90;;;;;;4880278;29;20514;-76
2022/11/02 07:33:41;;;;;;;9.30;2.90;;;14.40;99.90;;;;;;4880414;29;20625;-75
2022/11/02 07:36:07;;;;;;;7.07;2.20;;;14.50;99.90;;;;;;4880039;29;20181;-76
2022/11/02 07:38:33;;;;;;;11.67;2.30;;;14.40;99.90;;;;;;4880003;29;20182;-75
2022/11/02 07:40:58;;;;;;;7.73;2.40;;;14.40;99.90;;;;;;4880190;29;20216;-75
2022/11/02 07:43:24;;;;;;;11.07;2.33;;;14.30;99.90;;;;;;4879865;29;20281;-75
2022/11/02 07:45:49;;;;;;;10.73;2.20;;;14.30;99.90;;;;;;4880218;29;20212;-75
2022/11/02 07:48:15;;;;;;;8.23;2.10;;;14.30;99.90;;;;;;4880123;29;20193;-76
2022/11/02 07:50:40;;;;;;;9.87;1.80;;;14.30;99.90;;;;;;4880003;29;20170;-75
2022/11/02 07:53:06;;;;;;;13.40;3.40;;;14.10;99.90;;;;;;4879964;29;20200;-75
2022/11/02 07:55:32;;;;;;;6.53;2.60;;;14.20;99.90;;;;;;4863379;29;20177;-75
2022/11/02 07:58:00;;;;;;;13.03;2.50;;;14.20;99.90;;;;;;4879981;29;20249;-75
2022/11/02 08:00:28;;;;;;;13.27;3.90;;;14.20;99.90;;;;;;4879948;29;20177;-75
2022/11/02 08:02:58;;;;;;;10.23;1.90;;;14.30;99.90;;;;;;4879670;29;20489;-75
2022/11/02 08:05:24;;;;;;;12.83;3.10;;;14.40;99.90;;;;;;4879863;29;20790;-75
2022/11/02 08:08:01;;;;;;;9.30;2.30;;;14.60;99.90;;;;;;4879822;29;20945;-75
2022/11/02 08:10:29;;;;;;;7.60;1.97;;;14.60;99.90;;;;;;4879880;29;20445;-75
2022/11/02 08:12:55;;;;;;;7.90;1.87;;;14.70;99.90;;;;;;4879793;29;20525;-75
2022/11/02 08:15:20;;;;;;;8.27;2.77;;;14.70;99.90;;;;;;4879679;29;21058;-75
2022/11/02 08:17:46;;;;;;;7.73;2.20;;;14.80;99.90;;;;;;4879569;29;20217;-74
2022/11/02 08:20:12;;;;;;;9.13;2.33;;;14.80;99.90;;;;;;4878909;29;20187;-75
2022/11/02 08:22:38;;;;;;;12.23;2.57;;;14.80;99.90;;;;;;4879628;29;20221;-75
2022/11/02 08:25:05;;;;;;;12.00;2.63;;;14.80;99.90;;;;;;4879555;29;20187;-75
2022/11/02 08:27:30;;;;;;;9.90;2.60;;;14.70;99.90;;;;;;4879513;29;20797;-75
2022/11/02 08:29:56;;;;;;;11.60;2.77;;;14.70;99.90;;;;;;4879528;29;20529;-75
2022/11/02 08:32:22;;;;;;;8.30;3.20;;;14.80;99.90;;;;;;4879248;29;20229;-75
2022/11/02 08:34:47;;;;;;;7.80;2.20;;;14.80;99.90;;;;;;4879574;29;20185;-75
2022/11/02 08:37:13;;;;;;;13.87;3.10;;;14.80;99.90;;;;;;4879453;29;20667;-73
2022/11/02 08:39:38;;;;;;;4.73;1.83;;;14.90;99.90;;;;;;4879448;29;20185;-74
2022/11/02 08:42:04;;;;;;;9.07;2.30;;;14.90;99.90;;;;;;4879032;29;20240;-75
2022/11/02 08:44:30;;;;;;;10.20;2.23;;;14.80;99.90;;;;;;4879736;29;20189;-76
2022/11/02 08:46:56;;;;;;;10.90;3.17;;;14.90;99.90;;;;;;4880514;29;20196;-76
2022/11/02 08:49:22;;;;;;;6.60;2.50;;;15.10;99.90;;;;;;4879314;29;20429;-76
2022/11/02 08:51:47;;;;;;;9.00;2.73;;;15.20;99.90;;;;;;4879245;29;20177;-76
2022/11/02 08:54:13;;;;;;;11.93;2.60;;;15.30;99.90;;;;;;4879376;29;20724;-75
2022/11/02 08:56:39;;;;;;;10.97;2.80;;;15.20;99.90;;;;;;4879339;29;20271;-76
2022/11/02 08:59:05;;;;;;;10.70;2.60;;;15.20;99.90;;;;;;4879353;29;20536;-76
2022/11/02 09:01:30;;;;;;;8.63;2.63;;;15.20;99.90;;;;;;4879125;29;20236;-76
2022/11/02 09:03:56;;;;;;;13.83;2.70;;;15.20;99.90;;;;;;4879190;29;20232;-76
2022/11/02 09:06:21;;;;;;;4.80;2.10;;;15.30;99.90;;;;;;4879138;29;20217;-76
2022/11/02 09:08:47;;;;;;;14.97;4.13;;;15.20;99.90;;;;;;4878899;29;20185;-76
2022/11/02 09:11:13;;;;;;;10.80;1.80;;;15.20;99.90;;;;;;4879052;29;20181;-76
2022/11/02 09:13:38;;;;;;;11.03;2.30;;;15.10;99.90;;;;;;4878859;29;20173;-76
2022/11/02 09:16:04;;;;;;;14.10;4.13;;;15.00;99.90;;;;;;4878804;29;20177;-76
2022/11/02 09:18:30;;;;;;;15.00;3.20;;;14.90;99.90;;;;;;4879192;29;20637;-77
2022/11/02 09:20:56;;;;;;;11.63;2.17;;;15.00;99.90;;;;;;4862343;29;20541;-76
2022/11/02 09:23:22;;;;;;;6.10;2.30;;;14.90;99.90;;;;;;4877877;29;20221;-77
2022/11/02 09:25:48;;;;;;;3.80;1.90;;;14.90;99.90;;;;;;4878245;29;20184;-76
2022/11/02 09:28:14;;;;;;;8.40;2.53;;;15.00;99.90;;;;;;4878084;29;20500;-76
2022/11/02 09:30:40;;;;;;;12.53;2.87;;;15.10;99.90;;;;;;4877976;29;20483;-76
2022/11/02 09:33:06;;;;;;;10.43;2.47;;;15.00;99.90;;;;;;4881299;29;20213;-76
2022/11/02 09:35:35;;;;;;;8.53;2.90;;;15.00;99.90;;;;;;4881630;29;20823;-76
2022/11/02 09:38:01;;;;;;;5.53;1.60;;;15.00;99.90;;;;;;4881587;29;20657;-76
2022/11/02 09:40:51;;;;;;;8.97;2.93;;;14.90;99.90;;;;;;4881475;29;20599;-76
2022/11/02 09:43:51;;;;;;;6.73;2.43;;;15.00;99.90;;;;;;4854565;29;20228;-76
2022/11/02 09:46:24;;;;;;;12.90;3.60;;;14.90;99.90;;;;;;4850853;29;20476;-76
2022/11/02 09:48:55;;;;;;;6.20;2.00;;;15.10;99.90;;;;;;4881169;29;20473;-76
2022/11/02 09:51:50;;;;;;;10.50;3.17;;;15.00;99.90;;;;;;4881139;29;20432;-76
2022/11/02 09:54:26;;;;;;;10.50;3.63;;;14.90;99.90;;;;;;4881358;29;20501;-77
2022/11/02 09:56:57;;;;;;;4.77;1.83;;;14.90;99.90;;;;;;4881411;29;20496;-76
2022/11/02 09:59:25;;;;;;;4.60;2.03;;;15.00;99.90;;;;;;4881260;29;20437;-76
2022/11/02 10:01:56;;;;;;;11.17;2.13;;;15.00;99.90;;;;;;4880656;29;20458;-76
2022/11/02 10:04:52;;;;;;;10.57;2.83;;;14.90;99.90;;;;;;4881736;29;20485;-75
2022/11/02 10:07:37;;;;;;;8.93;2.53;;;15.00;99.90;;;;;;4881554;29;20426;-76
2022/11/02 10:10:08;;;;;;;9.80;2.27;;;15.00;99.90;;;;;;4881805;29;20426;-77
2022/11/02 10:12:40;;;;;;;9.40;2.37;;;15.00;99.90;;;;;;4865202;29;20474;-76
2022/11/02 10:15:24;;;;;;;9.70;2.20;;;15.00;99.90;;;;;;4881801;29;20964;-76
2022/11/02 10:17:55;;;;;;;6.27;2.10;;;15.20;99.90;;;;;;4881810;29;20438;-76
2022/11/02 10:20:34;;;;;;;12.40;1.93;;;15.30;99.90;;;;;;4881699;29;20428;-76
2022/11/02 10:23:06;;;;;;;12.17;2.80;;;15.40;99.90;;;;;;4881612;29;20481;-76
2022/11/02 10:25:34;;;;;;;13.80;2.10;;;15.30;99.90;;;;;;4881613;29;20969;-75
2022/11/02 10:28:20;;;;;;;13.00;2.50;;;15.40;99.90;;;;;;4881517;29;20941;-76
2022/11/02 10:30:46;;;;;;;6.63;1.90;;;15.40;99.90;;;;;;4881451;29;20487;-75
2022/11/02 10:33:14;;;;;;;8.63;2.43;;;15.40;99.90;;;;;;4881520;29;20437;-77
2022/11/02 10:35:51;;;;;;;9.97;2.40;;;15.60;99.90;;;;;;4881110;29;20676;-79
2022/11/02 10:38:39;;;;;;;7.83;1.73;;;15.50;99.90;;;;;;4881304;29;20493;-75
2022/11/02 10:41:43;;;;;;;5.80;2.23;;;15.60;99.90;;;;;;4881389;29;20440;-76
2022/11/02 10:44:37;;;;;;;13.40;2.63;;;15.70;99.90;;;;;;4880594;29;20457;-76
2022/11/02 10:47:02;;;;;;;7.53;1.87;;;15.70;99.90;;;;;;4881323;29;20546;-76
2022/11/02 10:49:52;;;;;;;5.53;2.27;;;15.70;99.90;;;;;;4864568;29;20516;-76
2022/11/02 10:52:18;;;;;;;7.93;2.30;;;15.60;99.90;;;;;;4881014;29;20669;-74
2022/11/02 10:54:43;;;;;;;8.33;2.60;;;15.60;99.90;;;;;;4881041;29;20474;-74
2022/11/02 10:57:13;;;;;;;10.03;2.93;;;15.60;99.90;;;;;;4881057;29;20181;-74
2022/11/02 10:59:39;;;;;;;6.17;2.40;;;15.50;99.90;;;;;;4881104;29;20233;-74
2022/11/02 11:02:13;;;;;;;4.60;2.00;;;15.50;99.90;;;;;;4880646;29;20465;-74
2022/11/02 11:04:39;;;;;;;6.73;2.00;;;15.60;99.90;;;;;;4880598;29;20225;-75
2022/11/02 11:07:24;;;;;;;4.70;2.17;;;15.70;99.90;;;;;;4880878;29;20521;-75
2022/11/02 11:09:49;;;;;;;6.90;2.33;;;15.80;99.90;;;;;;4880606;29;20815;-74
2022/11/02 11:12:30;;;;;;;6.00;2.23;;;15.80;99.90;;;;;;4880609;29;20528;-74
2022/11/02 11:15:00;;;;;;;6.33;1.90;;;15.90;99.90;;;;;;4880837;29;20200;-75
2022/11/02 11:17:30;;;;;;;6.23;1.90;;;15.90;99.90;;;;;;4880741;29;20428;-74
2022/11/02 11:19:57;;;;;;;7.03;1.67;;;16.10;99.90;;;;;;4880699;29;20425;-75
2022/11/02 11:22:31;;;;;;;7.27;2.97;;;16.20;99.90;;;;;;4880562;29;21065;-75
2022/11/02 11:25:12;;;;;;;9.17;2.03;;;16.10;99.90;;;;;;4880546;29;20433;-74
2022/11/02 11:27:46;;;;;;;4.80;1.87;;;16.00;99.90;;;;;;4880644;29;20425;-74
2022/11/02 11:30:59;;;;;;;7.50;1.43;;;16.10;99.90;;;;;;4880574;29;20512;-74
2022/11/02 11:33:25;;;;;;;9.00;1.70;;;16.20;99.90;;;;;;4840103;29;21050;-75
2022/11/02 11:35:51;;;;;;;13.20;1.80;;;16.40;99.90;;;;;;4875206;29;20534;-74
2022/11/02 11:38:19;;;;;;;5.50;2.30;;;16.30;99.90;;;;;;4880270;29;20248;-74
2022/11/02 11:40:52;;;;;;;5.87;2.03;;;16.20;99.90;;;;;;4880263;29;20275;-74
2022/11/02 11:43:20;;;;;;;9.83;2.67;;;16.10;99.90;;;;;;4880037;29;20488;-76
2022/11/02 11:45:58;;;;;;;7.20;2.20;;;16.20;99.90;;;;;;4880329;29;20422;-76
2022/11/02 11:48:33;;;;;;;5.77;2.10;;;16.30;99.90;;;;;;4879624;29;20437;-75
2022/11/02 11:51:01;;;;;;;6.90;1.60;;;16.50;99.90;;;;;;4880066;29;20429;-77
2022/11/02 11:53:27;;;;;;;11.17;3.20;;;16.50;99.90;;;;;;4880383;29;20944;-75
2022/11/02 11:55:57;;;;;;;17.93;2.83;;;16.50;99.90;;;;;;4880115;29;20441;-76
2022/11/02 11:58:31;;;;;;;4.40;1.77;;;16.50;99.90;;;;;;4880245;29;20177;-76
2022/11/02 12:01:10;;;;;;;8.60;2.80;;;16.50;99.90;;;;;;4880010;29;20484;-76
2022/11/02 12:03:53;;;;;;;7.53;2.33;;;16.50;98.60;;;;;;4879973;29;20989;-76
2022/11/02 12:06:43;;;;;;;4.40;1.90;;;16.50;97.30;;;;;;4879720;29;20445;-73
2022/11/02 12:09:17;;;;;;;5.50;1.60;;;16.50;98.10;;;;;;4879321;29;20797;-73
2022/11/02 12:11:51;;;;;;;6.20;2.00;;;16.50;98.50;;;;;;4879310;29;20434;-74
2022/11/02 12:14:22;;;;;;;5.40;2.23;;;16.50;99.10;;;;;;4879509;29;20432;-74
2022/11/02 12:17:08;;;;;;;5.07;2.30;;;16.50;99.70;;;;;;4879749;29;20497;-75
2022/11/02 12:20:22;;;;;;;8.73;2.40;;;16.50;98.80;;;;;;4878999;29;20961;-73
2022/11/02 12:23:05;;;;;;;17.63;2.70;;;16.50;97.70;;;;;;4829212;29;20895;-74
2022/11/02 12:25:53;;;;;;;4.50;1.70;;;16.60;98.10;;;;;;4879364;29;20496;-77
2022/11/02 12:28:38;;;;;;;4.83;1.83;;;16.50;97.40;;;;;;4879316;29;20950;-75
2022/11/02 12:31:29;;;;;;;10.20;2.53;;;16.50;97.00;;;;;;4879300;29;20485;-75
2022/11/02 12:34:00;;;;;;;3.50;1.50;;;16.60;96.20;;;;;;4891196;29;20585;-75
2022/11/02 12:36:52;;;;;;;5.33;1.93;;;16.50;96.30;;;;;;4879766;29;20434;-73
2022/11/02 12:39:50;;;;;;;7.53;2.30;;;16.50;96.60;;;;;;4881749;29;20841;-76
2022/11/02 12:42:27;;;;;;;5.63;1.67;;;16.30;95.60;;;;;;4880075;29;20466;-76
2022/11/02 12:45:16;;;;;;;4.40;1.63;;;16.30;96.20;;;;;;4879751;29;20434;-76
2022/11/02 12:47:57;;;;;;;7.80;2.20;;;16.40;96.60;;;;;;4879336;29;20425;-76
2022/11/02 12:50:46;;;;;;;5.37;1.67;;;16.50;97.00;;;;;;4879866;29;20444;-76
2022/11/02 12:53:21;;;;;;;7.53;2.20;;;16.50;97.10;;;;;;4880055;29;20437;-76
2022/11/02 12:55:52;;;;;;;7.13;2.00;;;16.40;97.40;;;;;;4879598;29;20436;-77
2022/11/02 12:58:22;;;;;;;3.93;2.07;;;16.40;96.80;;;;;;4879179;29;20445;-76
2022/11/02 13:00:53;;;;;;;7.23;2.63;;;16.40;96.20;;;;;;4879071;29;20428;-76
2022/11/02 13:03:48;;;;;;;7.80;2.20;;;16.40;96.90;;;;;;4879052;29;20481;-74
2022/11/02 13:06:19;;;;;;;3.43;2.00;;;16.40;97.80;;;;;;4879667;29;20495;-75
2022/11/02 13:08:50;;;;;;;14.50;3.50;;;16.50;99.80;;;;;;4883025;29;20509;-75
2022/11/02 13:11:32;;;;;;;4.10;2.07;;;16.80;99.90;;;;;;4882814;29;20421;-75
2022/11/02 13:14:01;;;;;;;5.90;1.87;;;16.80;99.90;;;;;;4882941;29;20820;-75
2022/11/02 13:16:44;;;;;;;8.80;2.10;;;16.90;99.90;;;;;;4882663;29;20426;-76
2022/11/02 13:19:26;;;;;;;6.70;1.80;;;16.90;98.20;;;;;;4882699;29;20433;-75
2022/11/02 13:21:56;;;;;;;11.47;2.70;;;16.90;96.60;;;;;;4882677;29;20462;-75
2022/11/02 13:24:28;;;;;;;14.63;2.50;;;16.70;97.30;;;;;;4882798;29;20443;-76
2022/11/02 13:26:54;;;;;;;8.87;2.67;;;16.80;98.00;;;;;;4882819;29;20845;-76
2022/11/02 13:29:39;;;;;;;9.20;2.40;;;16.90;97.30;;;;;;4882624;29;20434;-76
2022/11/02 13:32:04;;;;;;;8.50;1.87;;;16.90;96.00;;;;;;4882412;29;20568;-76
2022/11/02 13:34:42;;;;;;;6.70;2.23;;;16.80;96.60;;;;;;4882584;29;20464;-76
2022/11/02 13:37:38;;;;;;;5.80;2.17;;;16.80;97.00;;;;;;4882404;29;20237;-76
2022/11/02 13:40:20;;;;;;;9.93;2.43;;;16.70;97.80;;;;;;4882654;29;20506;-76
2022/11/02 13:43:17;;;;;;;7.87;1.77;;;16.60;98.30;;;;;;4882330;29;20523;-75
2022/11/02 13:46:07;;;;;;;9.40;1.80;;;16.50;98.50;;;;;;4882339;29;20436;-75
2022/11/02 13:48:37;;;;;;;12.00;2.20;;;16.50;98.90;;;;;;4882359;29;20469;-76
2022/11/02 13:51:16;;;;;;;7.20;2.00;;;16.50;98.80;;;;;;4882209;29;20473;-75
2022/11/02 13:53:50;;;;;;;7.97;1.83;;;16.50;99.90;;;;;;4882321;29;20476;-74
2022/11/02 13:56:23;;;;;;;10.70;2.37;;;16.50;98.40;;;;;;4881527;29;20758;-75
2022/11/02 13:59:16;;;;;;;6.50;1.50;;;16.50;98.60;;;;;;4882210;29;20485;-75
2022/11/02 14:01:43;;;;;;;15.13;2.60;;;16.50;99.00;;;;;;4881527;29;20465;-74
2022/11/02 14:04:11;;;;;;;12.87;2.90;;;16.50;99.10;;;;;;4881846;29;20584;-74
2022/11/02 14:06:50;;;;;;;4.70;2.17;;;16.50;99.30;;;;;;4881957;29;20500;-74
2022/11/02 14:09:41;;;;;;;8.50;2.73;;;16.50;99.90;;;;;;4881865;29;20440;-75
2022/11/02 14:12:21;;;;;;;12.13;2.20;;;16.40;99.90;;;;;;4875154;29;20446;-73
2022/11/02 14:15:12;;;;;;;6.53;1.73;;;16.40;99.90;;;;;;4881973;29;20441;-74
2022/11/02 14:18:00;;;;;;;6.13;1.70;;;16.40;99.90;;;;;;4855278;29;20441;-74
2022/11/02 14:20:36;;;;;;;6.30;2.10;;;16.40;98.70;;;;;;4881723;29;20438;-77
2022/11/02 14:23:11;;;;;;;8.30;1.83;;;16.40;99.00;;;;;;4881011;29;20531;-76
2022/11/02 14:25:48;;;;;;;9.67;2.30;;;16.40;99.00;;;;;;4881726;29;20425;-76
2022/11/02 14:28:20;;;;;;;9.20;2.00;;;16.30;98.90;;;;;;4881641;29;20468;-76
2022/11/02 14:31:07;;;;;;;6.50;2.97;;;16.30;99.90;;;;;;4881442;29;21057;-76
2022/11/02 14:33:50;;;;;;;9.40;2.60;;;16.10;99.90;;;;;;4870658;29;20461;-76
2022/11/02 14:36:16;;;;;;;8.63;2.10;;;16.10;99.90;;;;;;4881409;29;20438;-76
2022/11/02 14:39:02;;;;;;;5.20;1.80;;;16.00;99.90;;;;;;4881404;29;20429;-76
2022/11/02 14:41:34;;;;;;;8.10;1.87;;;16.10;99.90;;;;;;4881468;29;20276;-76
2022/11/02 14:44:19;;;;;;;5.57;1.93;;;16.10;99.90;;;;;;4881259;29;20523;-76
2022/11/02 14:46:52;;;;;;;12.67;2.67;;;16.10;99.90;;;;;;4893639;29;20467;-79
2022/11/02 14:49:27;;;;;;;8.87;2.77;;;16.10;99.90;;;;;;4899960;29;20441;-82
2022/11/02 14:52:03;;;;;;;13.10;2.40;;;16.10;99.90;;;;;;4904031;29;20466;-80
2022/11/02 14:54:33;;;;;;;6.23;2.53;;;16.30;99.90;;;;;;4900529;29;20439;-84
2022/11/02 14:57:46;;;;;;;7.53;2.67;;;16.40;99.90;;;;;;4906781;29;20441;-87
2022/11/02 15:00:35;;;;;;;10.13;2.80;;;16.40;99.90;;;;;;4859534;29;20444;-86
2022/11/02 15:03:01;;;;;;;9.83;2.67;;;16.40;99.90;;;;;;4900223;29;20478;-86
2022/11/02 15:05:38;;;;;;;16.13;3.17;;;16.50;99.90;;;;;;4900730;29;20767;-87
2022/11/02 15:08:25;;;;;;;9.43;2.97;;;16.50;99.90;;;;;;4899981;29;20522;-76
2022/11/02 15:10:51;;;;;;;11.93;2.63;;;16.50;99.90;;;;;;4899677;29;20431;-76
2022/11/02 15:13:19;;;;;;;9.67;2.30;;;16.50;99.90;;;;;;4899492;29;20441;-76
2022/11/02 15:15:53;;;;;;;9.00;2.13;;;16.50;99.90;;;;;;4899528;29;20185;-76
2022/11/02 15:18:30;;;;;;;10.80;2.70;;;16.50;99.90;;;;;;4899378;29;20432;-76
2022/11/02 15:21:25;;;;;;;8.70;2.40;;;16.60;99.90;;;;;;4899391;29;20534;-80
2022/11/02 15:24:12;;;;;;;10.37;2.63;;;16.50;99.90;;;;;;4883205;29;20485;-76
2022/11/02 15:26:51;;;;;;;9.67;3.27;;;16.50;99.90;;;;;;4898482;29;20444;-77
2022/11/02 15:29:35;;;;;;;10.03;2.33;;;16.30;99.90;;;;;;4898772;29;20428;-79
2022/11/02 15:32:03;;;;;;;5.73;2.57;;;16.30;99.90;;;;;;4898298;29;20507;-77
2022/11/02 15:34:39;;;;;;;11.97;3.00;;;16.20;99.90;;;;;;4899194;29;20519;-75
2022/11/02 15:37:06;;;;;;;7.87;3.03;;;16.10;99.90;;;;;;4899097;29;20501;-78
2022/11/02 15:39:32;;;;;;;12.27;3.27;;;16.10;99.90;;;;;;4899020;29;20829;-77
2022/11/02 15:42:15;;;;;;;7.80;2.23;;;15.90;99.90;;;;;;4899037;29;20429;-74
2022/11/02 15:45:03;;;;;;;13.20;3.37;;;15.90;99.90;;;;;;4898903;29;20501;-75
2022/11/02 15:47:46;;;;;;;9.43;2.93;;;15.90;99.90;;;;;;4899036;29;20515;-75
2022/11/02 15:50:33;;;;;;;6.87;2.23;;;15.80;99.90;;;;;;4898941;29;20440;-76
2022/11/02 15:53:17;;;;;;;13.30;2.60;;;15.80;99.90;;;;;;4898764;29;20437;-82
2022/11/02 15:56:12;;;;;;;8.33;2.43;;;15.70;99.90;;;;;;4897162;29;20425;-73
2022/11/02 15:58:58;;;;;;;8.37;3.67;;;15.60;99.90;;;;;;4863404;29;20884;-81
2022/11/02 16:01:26;;;;;;;10.20;2.77;;;15.50;99.90;;;;;;4898559;29;20801;-72
2022/11/02 16:03:59;;;;;;;9.23;2.50;;;15.30;99.90;;;;;;4898247;29;20472;-77
2022/11/02 16:06:32;;;;;;;11.03;3.47;;;15.30;99.90;;;;;;4897537;29;20583;-75
2022/11/02 16:09:00;;;;;;;16.90;10.47;;;15.20;99.90;;;;;;4898542;29;20432;-78
2022/11/02 16:11:27;;;;;;;19.20;7.37;;;15.20;99.90;;;;;;4898379;29;20445;-78
2022/11/02 16:14:14;;;;;;;17.93;6.77;;;15.10;99.90;;;;;;4898510;29;20436;-80
2022/11/02 16:16:49;;;;;;;11.73;4.03;;;15.00;99.90;;;;;;4898248;29;20440;-74
2022/11/02 16:19:19;;;;;;;9.80;4.30;;;14.90;99.90;;;;;;4897054;29;21138;-79
2022/11/02 16:21:45;;;;;;;7.47;3.50;;;14.80;99.90;;;;;;4897135;29;20496;-79
2022/11/02 16:24:11;;;;;;;10.07;3.43;;;14.70;99.90;;;;;;4897275;29;20480;-77
2022/11/02 16:26:37;;;;;;;16.13;3.47;;;14.70;99.90;;;;;;4897360;29;20777;-81
2022/11/02 16:29:07;;;;;;;14.83;3.63;;;14.60;99.90;;;;;;4897178;29;20195;-78
2022/11/02 16:31:33;;;;;;;8.60;3.10;;;14.50;99.90;;;;;;4897303;29;20475;-80
2022/11/02 16:34:21;;;;;;;17.23;4.87;;;14.40;99.90;;;;;;4897281;29;20429;-80
2022/11/02 16:36:47;;;;;;;9.30;3.30;;;14.40;99.90;;;;;;4897008;29;20642;-79
2022/11/02 16:39:16;;;;;;;14.30;3.70;;;14.40;99.90;;;;;;4896483;29;20496;-78
2022/11/02 16:41:51;;;;;;;8.33;3.57;;;14.30;99.90;;;;;;4896582;29;20956;-79
2022/11/02 16:44:20;;;;;;;11.47;4.60;;;14.20;99.90;;;;;;4897002;29;20531;-79
2022/11/02 16:46:57;;;;;;;11.30;3.90;;;14.20;99.90;;;;;;4880232;29;20428;-78
2022/11/02 16:49:24;;;;;;;16.70;3.63;;;14.10;99.90;;;;;;4896691;29;20440;-78
2022/11/02 16:51:57;;;;;;;12.00;3.27;;;14.10;99.90;;;;;;4896398;29;20840;-79
2022/11/02 16:54:41;;;;;;;8.43;3.23;;;14.10;99.90;;;;;;4897082;29;20433;-76
2022/11/02 16:57:18;;;;;;;15.97;2.63;;;14.00;99.90;;;;;;4896816;29;20428;-78
2022/11/02 16:59:52;;;;;;;10.43;4.20;;;14.00;99.90;;;;;;4896703;29;20803;-78
2022/11/02 17:02:22;;;;;;;7.97;3.50;;;14.00;99.90;;;;;;4896818;29;20468;-77
2022/11/02 17:04:48;;;;;;;18.60;4.07;;;14.00;99.90;;;;;;4896088;29;20445;-78